Jekyll Island, Georgia
Current Conditions -  °F | °C
As of 12:15 PM on Sunday 23 Nov 2014 (Local Time) from KSSI Reporting Station
Overcast Overcast  
Wind Chill: 68°   Ceiling: 3400
Heat Index: 68°   Visibility: 10mi
Dew Point: 68°   Wind: 5mph
Humidity: 100%   Direction: 160°SSE
Pressure: 29.95"   Gusts: NA
Location:  31.07°N, 81.41°W
Report Text: KSSI 231715Z AUTO 16004KT 10SM FEW003 OVC034 20/20 A2995 RMK AO2 T02000200
Loading
Personal Weather Stations






























Interactive Weather Map New forecast layout! Learn more

10-Day Weather Forecast

Advertisements
Track Severe Weather on mobile